Time;durP1;ratioP1;P1;durP2;ratioP2;P2;SDS_P1;SDS_P2;PMS_P1;PMS_P2;Temp;Humidity;BMP_temperature;BMP_pressure;BME280_temperature;BME280_humidity;BME280_pressure;Samples;Min_cycle;Max_cycle;Signal;HPM_P1;HPM_P2
2023/05/17 00:00:29;;;;;;;1.63;0.43;;;13.50;99.90;;;;;;6272575;28;20480;-64
2023/05/17 00:03:32;;;;;;;0.50;0.50;;;13.60;99.90;;;;;;6265315;28;20556;-64
2023/05/17 00:06:36;;;;;;;1.37;0.50;;;13.60;99.90;;;;;;6274684;28;20469;-65
2023/05/17 00:09:39;;;;;;;1.17;0.70;;;13.60;99.90;;;;;;6274215;28;20466;-65
2023/05/17 00:12:42;;;;;;;0.50;0.40;;;13.60;99.90;;;;;;6275292;28;20541;-67
2023/05/17 00:15:47;;;;;;;0.50;0.30;;;13.60;99.90;;;;;;6275059;28;20494;-67
2023/05/17 00:18:50;;;;;;;0.47;0.40;;;13.50;99.90;;;;;;6275489;28;20470;-68
2023/05/17 00:21:53;;;;;;;1.37;0.30;;;13.50;99.90;;;;;;6275306;28;20548;-67
2023/05/17 00:24:57;;;;;;;1.37;0.30;;;13.50;99.90;;;;;;6275384;28;20479;-67
2023/05/17 00:28:00;;;;;;;1.53;0.30;;;13.50;99.90;;;;;;6275573;28;20478;-67
2023/05/17 00:31:04;;;;;;;0.47;0.43;;;13.50;99.90;;;;;;6274974;28;20962;-68
2023/05/17 00:34:07;;;;;;;0.50;0.37;;;13.50;99.90;;;;;;6275228;28;20474;-67
2023/05/17 00:37:10;;;;;;;1.80;0.40;;;13.50;99.90;;;;;;6274927;28;20470;-67
2023/05/17 00:40:15;;;;;;;0.50;0.40;;;13.50;99.90;;;;;;6274988;28;20484;-67
2023/05/17 00:43:18;;;;;;;0.77;0.50;;;13.50;99.90;;;;;;6274804;28;20511;-67
2023/05/17 00:46:22;;;;;;;0.43;0.40;;;13.50;99.90;;;;;;6274906;28;20782;-68
2023/05/17 00:49:26;;;;;;;0.80;0.33;;;13.50;99.90;;;;;;6274848;28;20484;-67
2023/05/17 00:52:29;;;;;;;1.37;0.40;;;13.60;99.90;;;;;;6274738;28;20479;-68
2023/05/17 00:55:33;;;;;;;1.63;0.40;;;13.60;99.90;;;;;;6274742;28;20794;-68
2023/05/17 00:58:37;;;;;;;0.50;0.30;;;13.60;99.90;;;;;;6274321;28;20512;-67
2023/05/17 01:01:43;;;;;;;0.80;0.43;;;13.60;99.90;;;;;;6274562;28;20469;-67
2023/05/17 01:04:47;;;;;;;0.70;0.40;;;13.60;99.90;;;;;;6274072;28;20462;-67
2023/05/17 01:07:50;;;;;;;0.57;0.40;;;13.60;99.90;;;;;;6274847;28;20512;-67
2023/05/17 01:11:01;;;;;;;0.80;0.40;;;13.60;99.90;;;;;;6274844;28;20477;-67
2023/05/17 01:14:18;;;;;;;0.60;0.40;;;13.60;99.90;;;;;;6274662;28;20418;-68
2023/05/17 01:17:27;;;;;;;0.50;0.40;;;13.60;99.90;;;;;;6274190;28;20961;-66
2023/05/17 01:20:36;;;;;;;0.50;0.50;;;13.60;99.90;;;;;;6274008;28;20506;-66
2023/05/17 01:23:48;;;;;;;0.80;0.50;;;13.60;99.90;;;;;;6274159;28;20474;-66
2023/05/17 01:26:54;;;;;;;0.80;0.40;;;13.60;99.90;;;;;;6274020;28;20507;-66
2023/05/17 01:29:59;;;;;;;0.60;0.40;;;13.60;99.90;;;;;;6274236;28;20487;-66
2023/05/17 01:33:03;;;;;;;1.80;0.30;;;13.60;99.90;;;;;;6273811;28;20488;-67
2023/05/17 01:36:08;;;;;;;0.70;0.40;;;13.60;99.90;;;;;;6274345;28;20489;-68
2023/05/17 01:39:11;;;;;;;0.40;0.30;;;13.60;99.90;;;;;;6274292;28;20466;-67
2023/05/17 01:42:23;;;;;;;0.60;0.30;;;13.60;99.90;;;;;;6274280;28;21017;-67
2023/05/17 01:45:31;;;;;;;0.67;0.40;;;13.50;99.90;;;;;;6273932;28;20466;-67
2023/05/17 01:48:40;;;;;;;0.63;0.40;;;13.60;99.90;;;;;;6274469;28;20516;-67
2023/05/17 01:51:48;;;;;;;1.27;0.30;;;13.60;99.90;;;;;;6273998;28;20469;-67
2023/05/17 01:55:00;;;;;;;0.90;0.30;;;13.60;99.90;;;;;;6274064;28;20478;-67
2023/05/17 01:58:07;;;;;;;0.40;0.30;;;13.70;99.90;;;;;;6277634;28;20987;-67
2023/05/17 02:01:13;;;;;;;1.63;0.40;;;13.80;99.90;;;;;;6278671;28;20478;-67
2023/05/17 02:04:16;;;;;;;1.60;0.30;;;13.70;99.90;;;;;;6279690;28;20469;-67
2023/05/17 02:07:20;;;;;;;0.60;0.40;;;13.70;99.90;;;;;;6281896;28;20470;-68
2023/05/17 02:10:23;;;;;;;2.80;0.50;;;13.70;99.90;;;;;;6282204;28;20548;-67
2023/05/17 02:13:29;;;;;;;0.50;0.40;;;13.80;99.90;;;;;;6278292;28;20480;-67
2023/05/17 02:16:32;;;;;;;0.80;0.40;;;13.80;99.90;;;;;;6278280;28;20505;-68
2023/05/17 02:19:35;;;;;;;0.97;0.30;;;13.80;99.90;;;;;;6278031;28;20478;-67
2023/05/17 02:22:42;;;;;;;0.40;0.30;;;13.80;99.90;;;;;;6278328;28;20466;-67
2023/05/17 02:25:45;;;;;;;0.50;0.40;;;13.80;99.90;;;;;;6278224;28;20494;-67
2023/05/17 02:28:49;;;;;;;1.47;0.40;;;13.80;99.90;;;;;;6278067;28;20587;-67
2023/05/17 02:31:53;;;;;;;0.80;0.30;;;13.80;99.90;;;;;;6278000;28;20446;-66
2023/05/17 02:34:56;;;;;;;0.70;0.40;;;13.80;99.90;;;;;;6278598;28;20442;-67
2023/05/17 02:37:59;;;;;;;0.40;0.40;;;13.80;99.90;;;;;;6278375;28;20491;-67
2023/05/17 02:41:04;;;;;;;0.73;0.40;;;13.80;99.90;;;;;;6277527;28;20490;-67
2023/05/17 02:44:09;;;;;;;0.40;0.30;;;13.80;99.90;;;;;;6277549;28;20541;-67
2023/05/17 02:47:12;;;;;;;0.50;0.30;;;13.80;99.90;;;;;;6277718;28;20480;-67
2023/05/17 02:50:15;;;;;;;1.00;0.40;;;13.80;99.90;;;;;;6277438;28;20478;-66
2023/05/17 02:53:18;;;;;;;1.30;0.50;;;13.80;99.90;;;;;;6278041;28;20482;-66
2023/05/17 02:56:21;;;;;;;0.50;0.30;;;13.90;99.90;;;;;;6277776;28;20492;-67
2023/05/17 02:59:26;;;;;;;0.60;0.30;;;13.90;99.90;;;;;;6277309;28;20476;-67
2023/05/17 03:02:30;;;;;;;0.50;0.30;;;13.90;99.90;;;;;;6277576;28;20476;-67
2023/05/17 03:05:33;;;;;;;1.83;0.50;;;13.90;99.90;;;;;;6277969;28;20466;-67
2023/05/17 03:08:37;;;;;;;0.50;0.40;;;13.90;99.90;;;;;;6275951;28;20481;-66
2023/05/17 03:11:40;;;;;;;2.40;0.37;;;13.90;99.90;;;;;;6276813;28;20470;-67
2023/05/17 03:14:45;;;;;;;0.50;0.30;;;13.90;99.90;;;;;;6277291;28;20466;-67
2023/05/17 03:17:48;;;;;;;0.40;0.37;;;13.90;99.90;;;;;;6276954;28;20466;-67
2023/05/17 03:20:51;;;;;;;0.40;0.30;;;13.80;99.90;;;;;;6276923;28;21059;-67
2023/05/17 03:23:54;;;;;;;0.50;0.30;;;13.80;99.90;;;;;;6276953;28;20481;-67
2023/05/17 03:26:57;;;;;;;0.57;0.43;;;13.80;99.90;;;;;;6277131;28;20477;-68
2023/05/17 03:30:02;;;;;;;0.50;0.30;;;13.80;99.90;;;;;;6276443;28;20474;-67
2023/05/17 03:33:05;;;;;;;0.47;0.33;;;13.90;99.90;;;;;;6276704;28;20482;-67
2023/05/17 03:36:09;;;;;;;0.50;0.30;;;13.90;99.90;;;;;;6276725;28;20466;-67
2023/05/17 03:39:12;;;;;;;0.50;0.30;;;13.90;99.90;;;;;;6276338;28;20473;-66
2023/05/17 03:42:15;;;;;;;1.30;0.90;;;13.90;99.90;;;;;;6276641;28;20481;-67
2023/05/17 03:45:20;;;;;;;0.50;0.20;;;13.90;99.90;;;;;;6276343;28;20470;-66
2023/05/17 03:48:23;;;;;;;0.40;0.23;;;13.90;99.90;;;;;;6276546;28;20820;-67
2023/05/17 03:51:26;;;;;;;2.90;0.50;;;13.90;99.90;;;;;;6275765;28;20826;-68
2023/05/17 03:54:30;;;;;;;0.40;0.30;;;13.90;99.90;;;;;;6276507;28;20473;-68
2023/05/17 03:57:33;;;;;;;0.40;0.30;;;13.90;99.90;;;;;;6275934;28;20868;-68
2023/05/17 04:00:38;;;;;;;0.50;0.33;;;14.00;99.90;;;;;;6276300;28;20470;-68
2023/05/17 04:03:41;;;;;;;0.50;0.30;;;14.10;99.90;;;;;;6275946;28;20838;-68
2023/05/17 04:06:44;;;;;;;0.80;0.30;;;14.10;99.90;;;;;;6276136;28;20553;-68
2023/05/17 04:09:47;;;;;;;1.33;0.30;;;14.10;99.90;;;;;;6275567;28;20474;-68
2023/05/17 04:12:50;;;;;;;0.50;0.40;;;14.10;99.90;;;;;;6275840;28;20519;-68
2023/05/17 04:15:55;;;;;;;0.53;0.33;;;14.10;99.90;;;;;;6275564;28;20470;-68
2023/05/17 04:19:01;;;;;;;0.90;0.30;;;14.10;99.90;;;;;;6270407;28;20524;-68
2023/05/17 04:22:04;;;;;;;0.77;0.33;;;14.20;99.90;;;;;;6275832;28;20470;-68
2023/05/17 04:25:08;;;;;;;0.40;0.30;;;14.20;99.50;;;;;;6275930;28;20466;-68
2023/05/17 04:28:12;;;;;;;0.60;0.30;;;14.30;99.50;;;;;;6277803;28;20466;-68
2023/05/17 04:31:17;;;;;;;0.87;0.43;;;14.30;99.30;;;;;;6279999;28;20478;-68
2023/05/17 04:34:22;;;;;;;0.60;0.40;;;14.40;99.20;;;;;;6276325;28;20470;-68
2023/05/17 04:37:25;;;;;;;0.67;0.50;;;14.40;99.80;;;;;;6275173;28;20474;-68
2023/05/17 04:40:29;;;;;;;0.97;0.57;;;14.40;99.90;;;;;;6275058;28;20474;-68
2023/05/17 04:43:32;;;;;;;0.80;0.73;;;14.40;99.90;;;;;;6275083;28;20470;-68
2023/05/17 04:46:36;;;;;;;0.50;0.40;;;14.40;99.90;;;;;;6274903;28;20553;-68
2023/05/17 04:49:40;;;;;;;0.87;0.40;;;14.40;99.90;;;;;;6274647;28;20552;-68
2023/05/17 04:52:44;;;;;;;1.43;1.33;;;14.50;99.90;;;;;;6274918;28;20564;-67
2023/05/17 04:55:48;;;;;;;1.07;0.90;;;14.60;99.90;;;;;;6274856;28;20473;-67
2023/05/17 04:58:51;;;;;;;1.37;0.80;;;14.60;99.90;;;;;;6274372;28;20489;-67
2023/05/17 05:01:56;;;;;;;2.20;1.00;;;14.50;99.90;;;;;;6275074;28;20442;-67
2023/05/17 05:04:59;;;;;;;2.60;1.37;;;14.60;99.90;;;;;;6275158;28;20442;-67
2023/05/17 05:08:03;;;;;;;2.33;1.07;;;14.60;99.90;;;;;;6275169;28;20457;-67
2023/05/17 05:11:06;;;;;;;1.90;1.30;;;14.70;99.90;;;;;;6274432;28;20890;-67
2023/05/17 05:14:09;;;;;;;1.10;0.80;;;14.70;99.90;;;;;;6274728;28;20476;-67
2023/05/17 05:17:14;;;;;;;1.07;0.97;;;14.80;99.90;;;;;;6274494;28;20906;-68
2023/05/17 05:20:17;;;;;;;1.40;0.80;;;14.90;99.90;;;;;;6274028;28;20568;-68
2023/05/17 05:23:20;;;;;;;1.43;0.60;;;15.00;99.90;;;;;;6269956;28;20472;-68
2023/05/17 05:26:23;;;;;;;3.13;0.50;;;15.20;99.90;;;;;;6274365;28;20469;-68
2023/05/17 05:29:27;;;;;;;0.50;0.33;;;15.30;98.90;;;;;;6274188;28;20953;-68
2023/05/17 05:32:31;;;;;;;0.70;0.30;;;15.40;97.20;;;;;;6278243;28;20477;-68
2023/05/17 05:35:35;;;;;;;1.10;0.73;;;15.50;96.80;;;;;;6280043;28;20465;-68
2023/05/17 05:38:38;;;;;;;0.50;0.30;;;15.50;96.60;;;;;;6279730;28;20480;-68
2023/05/17 05:41:41;;;;;;;0.57;0.40;;;15.60;96.10;;;;;;6280035;28;20480;-69
2023/05/17 05:44:44;;;;;;;0.70;0.30;;;15.60;96.20;;;;;;6280272;28;20565;-69
2023/05/17 05:47:49;;;;;;;1.47;0.20;;;15.50;95.30;;;;;;6279532;28;20470;-69
2023/05/17 05:50:52;;;;;;;0.40;0.30;;;15.40;95.50;;;;;;6279269;28;20586;-70
2023/05/17 05:53:56;;;;;;;1.37;0.40;;;15.50;95.70;;;;;;6278967;28;20952;-70
2023/05/17 05:56:59;;;;;;;0.70;0.50;;;15.50;95.30;;;;;;6278778;28;20559;-69
2023/05/17 06:00:03;;;;;;;1.93;1.00;;;15.40;95.40;;;;;;6278825;28;20503;-67
2023/05/17 06:03:08;;;;;;;1.17;0.30;;;15.50;95.80;;;;;;6278899;28;20474;-67
2023/05/17 06:06:11;;;;;;;0.60;0.30;;;15.50;94.90;;;;;;6278632;28;20581;-67
2023/05/17 06:09:14;;;;;;;0.63;0.53;;;15.60;95.20;;;;;;6278297;28;20476;-68
2023/05/17 06:12:17;;;;;;;0.80;0.43;;;15.60;94.90;;;;;;6278307;28;21019;-68
2023/05/17 06:15:20;;;;;;;1.00;0.50;;;15.50;94.10;;;;;;6278129;28;20469;-68
2023/05/17 06:18:25;;;;;;;0.97;0.30;;;15.50;94.70;;;;;;6278709;28;20631;-68
2023/05/17 06:21:29;;;;;;;1.23;0.30;;;15.50;94.90;;;;;;6278105;28;20476;-69
2023/05/17 06:24:33;;;;;;;1.60;0.50;;;15.60;94.30;;;;;;6278303;28;20470;-68
2023/05/17 06:27:36;;;;;;;0.50;0.30;;;15.50;93.70;;;;;;6278701;28;20980;-68
2023/05/17 06:30:39;;;;;;;0.50;0.40;;;15.50;94.00;;;;;;6278216;28;20473;-68
2023/05/17 06:33:44;;;;;;;0.47;0.27;;;15.60;94.10;;;;;;6278266;28;20466;-68
2023/05/17 06:36:47;;;;;;;1.23;0.50;;;15.50;93.80;;;;;;6278204;28;20818;-68
2023/05/17 06:39:51;;;;;;;1.00;0.30;;;15.50;93.70;;;;;;6278697;28;20511;-68
2023/05/17 06:43:11;;;;;;;1.43;0.30;;;15.60;93.50;;;;;;6277792;28;20470;-68
2023/05/17 06:46:14;;;;;;;0.90;0.40;;;15.70;93.50;;;;;;6278176;28;21007;-68
2023/05/17 06:49:18;;;;;;;1.20;0.40;;;15.70;93.30;;;;;;6278983;28;20477;-65
2023/05/17 06:52:22;;;;;;;0.50;0.30;;;15.80;92.80;;;;;;6280860;28;20478;-65
2023/05/17 06:55:25;;;;;;;1.63;0.27;;;15.80;93.20;;;;;;6280074;28;20551;-66
2023/05/17 06:58:28;;;;;;;0.87;0.47;;;15.90;92.50;;;;;;6278216;28;20493;-66
2023/05/17 07:01:31;;;;;;;0.50;0.30;;;16.00;92.10;;;;;;6277985;28;20489;-66
2023/05/17 07:04:36;;;;;;;0.70;0.20;;;16.00;92.10;;;;;;6277699;28;20480;-66
2023/05/17 07:07:39;;;;;;;0.70;0.37;;;16.00;91.20;;;;;;6277637;28;20466;-66
2023/05/17 07:10:43;;;;;;;0.70;0.27;;;16.00;91.30;;;;;;6277329;28;20470;-66
2023/05/17 07:13:46;;;;;;;0.77;0.30;;;16.10;91.20;;;;;;6276061;28;20619;-64
2023/05/17 07:16:49;;;;;;;0.87;0.40;;;16.00;90.80;;;;;;6276890;28;20462;-64
2023/05/17 07:19:53;;;;;;;1.13;0.37;;;16.10;91.10;;;;;;6276427;28;20598;-65
2023/05/17 07:22:57;;;;;;;0.80;0.40;;;16.10;90.70;;;;;;6277322;28;20479;-64
2023/05/17 07:26:03;;;;;;;0.80;0.23;;;16.10;90.40;;;;;;6274135;28;20461;-64
2023/05/17 07:29:09;;;;;;;0.50;0.30;;;16.10;90.20;;;;;;6277291;28;20544;-64
2023/05/17 07:32:12;;;;;;;1.13;0.50;;;16.00;90.20;;;;;;6276691;28;20977;-65
2023/05/17 07:35:17;;;;;;;1.17;0.53;;;16.00;90.30;;;;;;6276354;28;20489;-65
2023/05/17 07:38:23;;;;;;;0.70;0.40;;;16.00;90.80;;;;;;6276631;28;20782;-65
2023/05/17 07:41:26;;;;;;;1.10;0.33;;;16.10;90.40;;;;;;6276162;28;20462;-65
2023/05/17 07:44:30;;;;;;;0.80;0.50;;;16.20;90.60;;;;;;6276806;28;20476;-65
2023/05/17 07:47:33;;;;;;;0.50;0.30;;;16.30;89.90;;;;;;6276489;28;20999;-64
2023/05/17 07:50:38;;;;;;;0.67;0.30;;;16.30;89.50;;;;;;6276383;28;20478;-64
2023/05/17 07:53:41;;;;;;;0.97;0.40;;;16.50;89.40;;;;;;6275541;28;20783;-65
2023/05/17 07:56:44;;;;;;;0.60;0.43;;;16.50;89.20;;;;;;6275373;28;20458;-65
2023/05/17 07:59:47;;;;;;;0.60;0.40;;;16.70;87.10;;;;;;6273010;28;20466;-64
2023/05/17 08:02:50;;;;;;;1.37;0.30;;;16.80;86.30;;;;;;6271633;28;20478;-64
2023/05/17 08:05:55;;;;;;;0.77;0.30;;;17.00;86.70;;;;;;6274242;28;20474;-65
2023/05/17 08:09:02;;;;;;;0.60;0.30;;;17.00;86.30;;;;;;6275062;28;20474;-64
2023/05/17 08:12:05;;;;;;;0.77;0.30;;;17.10;85.00;;;;;;6258612;28;20470;-65
2023/05/17 08:15:09;;;;;;;0.80;0.40;;;17.10;84.10;;;;;;6275052;28;20553;-65
2023/05/17 08:18:12;;;;;;;1.53;0.40;;;17.10;84.60;;;;;;6274921;28;20841;-63
2023/05/17 08:21:17;;;;;;;0.70;0.57;;;17.10;84.70;;;;;;6274698;28;20557;-65
2023/05/17 08:24:21;;;;;;;1.17;0.53;;;17.20;85.80;;;;;;6275489;28;20820;-65
2023/05/17 08:27:24;;;;;;;1.27;0.40;;;17.20;85.40;;;;;;6275303;28;20470;-63
2023/05/17 08:30:28;;;;;;;1.50;0.47;;;17.20;85.30;;;;;;6275403;28;20627;-65
2023/05/17 08:33:31;;;;;;;0.60;0.30;;;17.10;84.70;;;;;;6275345;28;20480;-65
2023/05/17 08:36:36;;;;;;;1.23;0.37;;;17.10;84.50;;;;;;6270148;28;20481;-65
2023/05/17 08:39:39;;;;;;;0.50;0.20;;;17.10;84.30;;;;;;6274162;28;20486;-66
2023/05/17 08:42:43;;;;;;;1.17;0.20;;;17.00;85.50;;;;;;6274578;28;20543;-66
2023/05/17 08:45:48;;;;;;;0.40;0.30;;;17.00;83.70;;;;;;6274224;28;20545;-65
2023/05/17 08:48:54;;;;;;;0.60;0.50;;;17.00;86.00;;;;;;6274789;28;20466;-66
2023/05/17 08:52:00;;;;;;;1.00;0.40;;;17.10;86.70;;;;;;6274570;28;20985;-65
2023/05/17 08:55:04;;;;;;;1.00;0.53;;;17.10;87.30;;;;;;6275199;28;20466;-66
2023/05/17 08:58:08;;;;;;;2.77;0.57;;;17.10;89.30;;;;;;6273780;28;20466;-65
2023/05/17 09:01:12;;;;;;;1.33;0.60;;;17.10;89.50;;;;;;6273459;28;20492;-65
2023/05/17 09:04:17;;;;;;;2.83;0.60;;;17.00;87.40;;;;;;6274390;28;20477;-65
2023/05/17 09:07:21;;;;;;;1.53;0.50;;;16.90;87.50;;;;;;6274566;28;20555;-65
2023/05/17 09:10:25;;;;;;;0.50;0.30;;;16.90;88.80;;;;;;6274215;28;20465;-65
2023/05/17 09:13:28;;;;;;;0.50;0.33;;;16.80;88.90;;;;;;6274227;28;20493;-66
2023/05/17 09:16:33;;;;;;;0.60;0.60;;;16.80;89.30;;;;;;6290919;28;20501;-65
2023/05/17 09:19:43;;;;;;;0.73;0.50;;;16.80;88.40;;;;;;6287922;28;20520;-68
2023/05/17 09:22:49;;;;;;;2.37;0.77;;;16.70;86.30;;;;;;6273952;28;20478;-63
2023/05/17 09:25:52;;;;;;;0.70;0.70;;;16.70;86.40;;;;;;6273876;28;20793;-62
2023/05/17 09:28:56;;;;;;;0.80;0.70;;;16.80;87.90;;;;;;6270869;28;20758;-63
2023/05/17 09:32:12;;;;;;;0.50;0.30;;;16.80;87.50;;;;;;6273313;28;20431;-62
2023/05/17 09:35:16;;;;;;;0.50;0.30;;;16.70;86.90;;;;;;6271241;28;20465;-62
2023/05/17 09:38:26;;;;;;;0.60;0.40;;;16.60;85.30;;;;;;6270545;28;20550;-62
2023/05/17 09:41:31;;;;;;;0.90;0.40;;;16.50;86.70;;;;;;6249284;28;20899;-63
2023/05/17 09:44:46;;;;;;;0.70;0.30;;;16.40;86.40;;;;;;6271405;28;20557;-63
2023/05/17 09:47:49;;;;;;;0.90;0.40;;;16.40;88.00;;;;;;6271490;28;20474;-66
2023/05/17 09:50:54;;;;;;;0.40;0.30;;;16.40;88.30;;;;;;6273444;28;20555;-65
2023/05/17 09:53:59;;;;;;;0.70;0.40;;;16.40;87.60;;;;;;6273912;28;20462;-65
2023/05/17 09:57:06;;;;;;;0.60;0.40;;;16.40;86.90;;;;;;6273917;28;20462;-66
2023/05/17 10:00:11;;;;;;;1.37;0.70;;;16.50;85.60;;;;;;6273566;28;21118;-65
2023/05/17 10:03:14;;;;;;;0.70;0.37;;;16.40;85.80;;;;;;6273720;28;20571;-65
2023/05/17 10:06:21;;;;;;;1.00;0.63;;;16.40;85.80;;;;;;6273683;28;20976;-65
2023/05/17 10:09:47;;;;;;;1.30;0.47;;;16.60;86.20;;;;;;6273261;28;20462;-65
2023/05/17 10:12:51;;;;;;;5.60;0.47;;;16.90;85.80;;;;;;6273827;28;20484;-65
2023/05/17 10:15:55;;;;;;;1.20;0.43;;;17.00;84.60;;;;;;6273615;28;20547;-65
2023/05/17 10:18:59;;;;;;;0.60;0.33;;;17.10;82.90;;;;;;6277219;28;20486;-65
2023/05/17 10:22:03;;;;;;;3.70;0.57;;;17.10;82.80;;;;;;6277767;28;20477;-65
2023/05/17 10:25:25;;;;;;;1.90;0.50;;;17.20;83.80;;;;;;6278010;28;20557;-65
2023/05/17 10:28:30;;;;;;;0.60;0.43;;;17.20;83.00;;;;;;6277739;28;20493;-65
2023/05/17 10:31:35;;;;;;;0.70;0.27;;;17.20;82.20;;;;;;6277519;28;20476;-65
2023/05/17 10:34:39;;;;;;;0.50;0.30;;;17.10;81.80;;;;;;6277703;28;21197;-65
2023/05/17 10:37:42;;;;;;;0.50;0.30;;;17.10;83.10;;;;;;6277468;28;20798;-65
2023/05/17 10:40:48;;;;;;;0.70;0.30;;;17.10;82.00;;;;;;6277492;28;20477;-65
2023/05/17 10:43:53;;;;;;;0.60;0.27;;;17.20;81.50;;;;;;6277595;28;20484;-65
2023/05/17 10:46:58;;;;;;;1.10;0.40;;;17.30;81.60;;;;;;6277465;28;20450;-65
2023/05/17 10:50:02;;;;;;;0.60;0.40;;;17.20;80.90;;;;;;6277623;28;20453;-65
2023/05/17 10:53:09;;;;;;;1.20;0.90;;;17.20;80.10;;;;;;6277759;28;20445;-65
2023/05/17 10:56:14;;;;;;;0.60;0.50;;;17.20;80.70;;;;;;6277553;28;20419;-65
2023/05/17 10:59:20;;;;;;;0.90;0.50;;;17.20;80.40;;;;;;6277558;28;20473;-65
2023/05/17 11:02:24;;;;;;;1.10;0.40;;;17.10;80.00;;;;;;6277201;28;21005;-65
2023/05/17 11:05:28;;;;;;;0.50;0.40;;;16.90;80.10;;;;;;6277172;28;20473;-65
2023/05/17 11:08:32;;;;;;;0.40;0.30;;;16.90;80.80;;;;;;6277101;28;20596;-65
2023/05/17 11:11:37;;;;;;;0.80;0.50;;;16.90;81.80;;;;;;6308112;22;20480;-66
2023/05/17 11:14:48;;;;;;;0.60;0.40;;;16.90;80.90;;;;;;6301563;28;20465;-65
2023/05/17 11:17:53;;;;;;;1.33;0.40;;;16.90;80.50;;;;;;6301872;28;20576;-65
2023/05/17 11:21:07;;;;;;;0.60;0.40;;;17.00;81.40;;;;;;6301762;28;20488;-65
2023/05/17 11:24:16;;;;;;;0.50;0.30;;;17.00;80.20;;;;;;6301621;28;20983;-65
2023/05/17 11:27:26;;;;;;;0.50;0.30;;;17.00;79.00;;;;;;6301713;28;20477;-65
2023/05/17 11:30:32;;;;;;;0.50;0.30;;;17.00;79.10;;;;;;6300182;28;20474;-65
2023/05/17 11:33:41;;;;;;;0.50;0.40;;;16.90;79.50;;;;;;6301287;28;20923;-65
2023/05/17 11:36:52;;;;;;;0.60;0.43;;;16.90;79.80;;;;;;6301761;28;20556;-65
2023/05/17 11:40:04;;;;;;;0.60;0.40;;;16.90;79.40;;;;;;6302577;28;20560;-65
2023/05/17 11:43:13;;;;;;;0.83;0.40;;;16.80;79.50;;;;;;6302502;28;20469;-66
2023/05/17 11:46:21;;;;;;;0.90;0.53;;;16.70;80.40;;;;;;6300646;28;20507;-65
2023/05/17 11:49:25;;;;;;;11.67;1.23;;;16.70;80.60;;;;;;6291788;28;20473;-65
2023/05/17 11:52:40;;;;;;;1.03;0.50;;;16.70;80.40;;;;;;6300818;28;20461;-65
2023/05/17 11:55:46;;;;;;;0.67;0.43;;;16.60;79.90;;;;;;6300539;28;20465;-65
2023/05/17 11:58:52;;;;;;;1.33;0.47;;;16.60;79.90;;;;;;6300914;28;20469;-65
2023/05/17 12:01:57;;;;;;;1.03;0.40;;;16.60;81.50;;;;;;6300952;28;20473;-65
2023/05/17 12:05:00;;;;;;;2.33;0.70;;;16.60;79.60;;;;;;6300420;28;20449;-65
2023/05/17 12:08:04;;;;;;;0.60;0.50;;;16.60;79.50;;;;;;6300850;28;20445;-65
2023/05/17 12:11:11;;;;;;;0.73;0.53;;;16.60;79.50;;;;;;6300293;28;20469;-65
2023/05/17 12:14:17;;;;;;;0.77;0.53;;;16.70;79.70;;;;;;6300484;28;20479;-66
2023/05/17 12:17:30;;;;;;;0.60;0.40;;;16.70;79.10;;;;;;6300376;28;20558;-64
2023/05/17 12:20:34;;;;;;;1.90;0.80;;;16.70;79.60;;;;;;6300256;28;20491;-64
2023/05/17 12:23:39;;;;;;;1.30;0.73;;;16.60;78.20;;;;;;6300787;28;20475;-63
2023/05/17 12:26:44;;;;;;;0.43;0.27;;;16.50;77.90;;;;;;6300420;28;20522;-66
2023/05/17 12:29:49;;;;;;;0.87;0.70;;;16.30;78.40;;;;;;6300215;28;20556;-64
2023/05/17 12:32:52;;;;;;;1.33;0.30;;;16.20;77.80;;;;;;6300517;28;20805;-66
2023/05/17 12:35:56;;;;;;;0.70;0.47;;;15.90;78.00;;;;;;6298621;28;20958;-65
2023/05/17 12:39:00;;;;;;;1.40;0.60;;;15.80;79.00;;;;;;6299438;28;20468;-64
2023/05/17 12:42:04;;;;;;;0.80;0.77;;;15.80;80.70;;;;;;6299259;28;20457;-65
2023/05/17 12:45:12;;;;;;;0.60;0.60;;;15.80;79.80;;;;;;6299696;28;20461;-65
2023/05/17 12:48:15;;;;;;;0.50;0.50;;;15.80;81.20;;;;;;6299807;28;20555;-64
2023/05/17 12:51:20;;;;;;;0.50;0.40;;;15.70;82.90;;;;;;6295356;28;20777;-65
2023/05/17 12:54:28;;;;;;;0.80;0.70;;;15.70;83.60;;;;;;6299353;28;20472;-65
2023/05/17 12:57:31;;;;;;;0.60;0.53;;;15.70;83.70;;;;;;6300414;28;20476;-65
2023/05/17 13:00:36;;;;;;;1.33;0.50;;;15.70;87.10;;;;;;6301443;28;20479;-67
2023/05/17 13:03:40;;;;;;;0.53;0.50;;;15.70;85.80;;;;;;6300976;28;20979;-64
2023/05/17 13:06:45;;;;;;;0.70;0.63;;;15.70;87.20;;;;;;6301449;28;20983;-63
2023/05/17 13:09:49;;;;;;;1.50;0.77;;;15.80;88.80;;;;;;6299056;28;20469;-65
2023/05/17 13:12:57;;;;;;;0.80;0.50;;;15.80;88.60;;;;;;6298048;28;20465;-64
2023/05/17 13:16:01;;;;;;;0.90;0.80;;;15.90;88.20;;;;;;6294052;28;20465;-64
2023/05/17 13:19:12;;;;;;;0.97;0.40;;;15.80;89.30;;;;;;6298271;28;20473;-63
2023/05/17 13:22:16;;;;;;;2.00;0.60;;;15.90;88.70;;;;;;6299423;28;20477;-64
2023/05/17 13:25:20;;;;;;;0.60;0.50;;;15.90;89.70;;;;;;6298696;28;20572;-64
2023/05/17 13:28:24;;;;;;;1.80;0.50;;;15.90;88.70;;;;;;6298382;28;20947;-64
2023/05/17 13:31:28;;;;;;;0.50;0.40;;;15.80;88.30;;;;;;6299116;28;20469;-64
2023/05/17 13:34:31;;;;;;;0.50;0.33;;;15.80;87.60;;;;;;6298592;28;20611;-64
2023/05/17 13:37:35;;;;;;;2.60;0.50;;;15.70;87.60;;;;;;6299077;28;20469;-65
2023/05/17 13:40:38;;;;;;;0.60;0.50;;;15.50;88.70;;;;;;6299005;28;20477;-65
2023/05/17 13:43:41;;;;;;;0.83;0.50;;;15.50;89.80;;;;;;6298796;28;20559;-65
2023/05/17 13:46:46;;;;;;;0.80;0.50;;;15.30;88.00;;;;;;6299374;28;20465;-65
2023/05/17 13:49:49;;;;;;;3.87;0.80;;;15.20;87.90;;;;;;6298808;28;20819;-64
2023/05/17 13:52:52;;;;;;;1.43;0.40;;;15.00;86.50;;;;;;6303491;28;20473;-65
2023/05/17 13:55:56;;;;;;;1.37;0.67;;;15.00;87.20;;;;;;6305266;28;20477;-65
2023/05/17 13:58:59;;;;;;;1.83;0.57;;;14.90;89.30;;;;;;6313304;28;20465;-65
2023/05/17 14:02:04;;;;;;;1.27;0.77;;;14.90;89.30;;;;;;6312938;28;20477;-64
2023/05/17 14:05:08;;;;;;;0.80;0.50;;;14.90;89.90;;;;;;6318091;28;20452;-64
2023/05/17 14:08:11;;;;;;;1.83;1.10;;;14.80;86.80;;;;;;6309985;28;20923;-64
2023/05/17 14:11:15;;;;;;;1.27;0.50;;;14.70;87.30;;;;;;6307130;28;20511;-65
2023/05/17 14:14:18;;;;;;;2.70;0.90;;;14.50;89.00;;;;;;6306387;28;20456;-65
2023/05/17 14:17:22;;;;;;;1.97;0.80;;;14.50;89.60;;;;;;6312892;28;21030;-63
2023/05/17 14:20:26;;;;;;;1.13;0.90;;;14.50;90.40;;;;;;6309597;28;20507;-63
2023/05/17 14:23:29;;;;;;;1.10;1.00;;;14.50;91.30;;;;;;6304250;28;20472;-64
2023/05/17 14:26:33;;;;;;;0.87;0.70;;;14.50;91.00;;;;;;6303966;28;20960;-64
2023/05/17 14:29:36;;;;;;;2.67;0.70;;;14.40;89.50;;;;;;6302996;28;20867;-64
2023/05/17 14:32:41;;;;;;;0.70;0.50;;;14.50;89.90;;;;;;6303482;28;20460;-64
2023/05/17 14:35:44;;;;;;;0.63;0.50;;;14.50;89.10;;;;;;6302715;28;20469;-64
2023/05/17 14:38:47;;;;;;;1.27;0.90;;;14.50;88.70;;;;;;6301844;28;20461;-64
2023/05/17 14:41:50;;;;;;;1.10;0.80;;;14.40;87.60;;;;;;6300834;28;20480;-64
2023/05/17 14:44:53;;;;;;;1.27;0.67;;;14.40;88.50;;;;;;6301094;28;20469;-63
2023/05/17 14:47:58;;;;;;;1.47;0.70;;;14.30;88.70;;;;;;6301088;28;20456;-64
2023/05/17 14:51:02;;;;;;;2.20;0.77;;;14.30;88.50;;;;;;6301684;28;20522;-64
2023/05/17 14:54:05;;;;;;;1.17;0.80;;;14.30;88.50;;;;;;6302031;28;20457;-64
2023/05/17 14:57:08;;;;;;;0.77;0.77;;;14.40;89.10;;;;;;6302543;28;20457;-66
2023/05/17 15:00:14;;;;;;;2.13;0.80;;;14.30;89.50;;;;;;6291465;28;20468;-66
2023/05/17 15:03:19;;;;;;;1.07;0.80;;;14.40;89.60;;;;;;6301636;28;20618;-65
2023/05/17 15:06:24;;;;;;;0.90;0.60;;;14.50;90.30;;;;;;6301638;28;20515;-64
2023/05/17 15:09:29;;;;;;;0.80;0.73;;;14.50;89.70;;;;;;6301092;28;20482;-64
2023/05/17 15:12:33;;;;;;;1.40;0.97;;;14.60;89.00;;;;;;6300882;28;20479;-64
2023/05/17 15:15:37;;;;;;;1.43;0.90;;;14.50;89.00;;;;;;6297710;28;20484;-65
2023/05/17 15:18:41;;;;;;;2.37;0.97;;;14.60;90.00;;;;;;6300205;28;20484;-64
2023/05/17 15:21:45;;;;;;;0.80;0.80;;;14.50;90.20;;;;;;6300404;28;20944;-65
2023/05/17 15:24:48;;;;;;;1.03;0.83;;;14.50;90.40;;;;;;6300050;28;20477;-65
2023/05/17 15:27:52;;;;;;;1.47;0.80;;;14.70;89.80;;;;;;6300807;28;20461;-65
2023/05/17 15:31:01;;;;;;;5.03;0.97;;;14.60;87.70;;;;;;6301247;28;20560;-65
2023/05/17 15:34:07;;;;;;;0.97;0.60;;;14.50;89.10;;;;;;6300858;28;20990;-65
2023/05/17 15:37:10;;;;;;;4.10;0.67;;;14.30;89.20;;;;;;6300676;28;20465;-65
2023/05/17 15:40:15;;;;;;;0.60;0.60;;;14.10;90.10;;;;;;6299321;28;20465;-65
2023/05/17 15:43:18;;;;;;;0.83;0.80;;;14.10;90.20;;;;;;6298578;28;20481;-65
2023/05/17 15:46:22;;;;;;;0.93;0.63;;;14.00;90.50;;;;;;6297998;28;20465;-70
2023/05/17 15:49:26;;;;;;;1.10;0.80;;;13.80;89.90;;;;;;6300730;28;20469;-70
2023/05/17 15:52:29;;;;;;;2.40;0.90;;;13.80;90.30;;;;;;6300946;28;20480;-72
2023/05/17 15:55:33;;;;;;;2.60;0.60;;;13.80;91.00;;;;;;6301276;28;20483;-74
2023/05/17 15:58:36;;;;;;;0.80;0.80;;;13.70;90.80;;;;;;6300212;28;20469;-72
2023/05/17 16:01:44;;;;;;;0.50;0.50;;;13.70;91.40;;;;;;6300222;28;20548;-72